createdAt,value
2018-01-10T00:00:10.659Z,91.4000015258789
2018-01-10T00:01:06.241Z,91.4000015258789
2018-01-10T00:02:08.304Z,91.4000015258789
2018-01-10T00:03:05.782Z,91.5
2018-01-10T00:04:08.761Z,91.5999984741211
2018-01-10T00:05:08.693Z,91.5999984741211
2018-01-10T00:06:08.656Z,91.5
2018-01-10T00:07:06.136Z,91.5
2018-01-10T00:08:05.685Z,91.5
2018-01-10T00:09:05.697Z,91.5
2018-01-10T00:10:08.654Z,91.5
2018-01-10T00:11:06.154Z,91.5
2018-01-10T00:12:08.142Z,91.5
2018-01-10T00:13:05.834Z,91.4000015258789
2018-01-10T00:14:06.307Z,91.4000015258789
2018-01-10T00:15:11.298Z,91.30000305175781
2018-01-10T00:16:05.721Z,91.4000015258789
2018-01-10T00:17:08.841Z,91.30000305175781
2018-01-10T00:18:06.363Z,91.4000015258789
2018-01-10T00:19:05.817Z,91.4000015258789
2018-01-10T00:20:05.926Z,91.4000015258789
2018-01-10T00:21:11.430Z,91.4000015258789
2018-01-10T00:22:06.042Z,91.4000015258789
2018-01-10T00:23:13.095Z,91.4000015258789
2018-01-10T00:24:05.544Z,91.4000015258789
2018-01-10T00:25:06.168Z,91.4000015258789
2018-01-10T00:26:05.671Z,91.4000015258789
2018-01-10T00:27:09.212Z,91.30000305175781
2018-01-10T00:28:05.436Z,91.30000305175781
2018-01-10T00:29:05.992Z,91.19999694824219
2018-01-10T00:30:08.032Z,91.30000305175781
2018-01-10T00:31:06.096Z,91.30000305175781
2018-01-10T00:32:08.119Z,91.19999694824219
2018-01-10T00:33:05.563Z,91.19999694824219
2018-01-10T00:34:06.297Z,91.19999694824219
2018-01-10T00:35:05.756Z,91.30000305175781
2018-01-10T00:36:10.636Z,91.4000015258789
2018-01-10T00:37:08.146Z,91.4000015258789
2018-01-10T00:38:08.010Z,91.4000015258789
2018-01-10T00:39:08.939Z,91.30000305175781
2018-01-10T00:40:06.326Z,91.30000305175781
2018-01-10T00:41:05.961Z,91.30000305175781
2018-01-10T00:42:05.511Z,91.19999694824219
2018-01-10T00:43:06.048Z,91.0999984741211
2018-01-10T00:44:10.741Z,91.0999984741211
2018-01-10T00:45:05.598Z,91.0999984741211
2018-01-10T00:46:06.172Z,91.0999984741211
2018-01-10T00:47:05.875Z,91.0999984741211
2018-01-10T00:48:10.543Z,91.0999984741211
2018-01-10T00:49:06.030Z,91.0999984741211
2018-01-10T00:50:05.817Z,91.19999694824219
2018-01-10T00:51:06.264Z,91.19999694824219
2018-01-10T00:52:06.128Z,91.19999694824219
2018-01-10T00:53:08.395Z,91.4000015258789
2018-01-10T00:54:06.107Z,91.4000015258789
2018-01-10T00:55:08.333Z,91.4000015258789
2018-01-10T00:56:10.681Z,91.30000305175781
2018-01-10T00:57:06.053Z,91.4000015258789
2018-01-10T00:58:08.201Z,91.4000015258789
2018-01-10T00:59:05.601Z,91.30000305175781
2018-01-10T01:00:11.174Z,91.30000305175781
2018-01-10T01:01:05.431Z,91.30000305175781
2018-01-10T01:02:06.214Z,91.30000305175781
2018-01-10T01:03:05.779Z,91.4000015258789
2018-01-10T01:04:06.344Z,91.30000305175781
2018-01-10T01:05:08.664Z,91.30000305175781
2018-01-10T01:06:10.566Z,91.19999694824219
2018-01-10T01:07:06.017Z,91.19999694824219
2018-01-10T01:08:08.057Z,91.19999694824219
2018-01-10T01:09:05.804Z,91.19999694824219
2018-01-10T01:10:11.321Z,91.19999694824219
2018-01-10T01:11:05.856Z,91.19999694824219
2018-01-10T01:12:06.609Z,91.19999694824219
2018-01-10T01:13:06.166Z,91.19999694824219
2018-01-10T01:14:10.703Z,91.0999984741211
2018-01-10T01:15:08.599Z,91.0999984741211
2018-01-10T01:16:05.635Z,91.0999984741211
2018-01-10T01:17:05.844Z,91.0999984741211
2018-01-10T01:18:06.296Z,91
2018-01-10T01:19:05.894Z,90.9000015258789
2018-01-10T01:20:13.898Z,91
2018-01-10T01:21:08.738Z,90.9000015258789
2018-01-10T01:22:06.276Z,90.9000015258789
2018-01-10T01:23:08.332Z,90.80000305175781
2018-01-10T01:24:05.801Z,90.9000015258789
2018-01-10T01:25:08.173Z,90.9000015258789
2018-01-10T01:26:08.542Z,90.9000015258789
2018-01-10T01:27:08.427Z,90.9000015258789
2018-01-10T01:28:08.316Z,91
2018-01-10T01:29:08.883Z,91
2018-01-10T01:30:06.241Z,91
2018-01-10T01:31:05.820Z,91.0999984741211
2018-01-10T01:32:11.493Z,91.0999984741211
2018-01-10T01:33:08.383Z,91.0999984741211
2018-01-10T01:34:05.970Z,91.0999984741211
2018-01-10T01:35:10.534Z,91
2018-01-10T01:36:06.188Z,91
2018-01-10T01:37:08.210Z,91
2018-01-10T01:38:05.942Z,91
2018-01-10T01:39:05.584Z,91
2018-01-10T01:40:06.104Z,91
2018-01-10T01:41:10.648Z,91
2018-01-10T01:42:05.698Z,91
2018-01-10T01:43:06.145Z,91
2018-01-10T01:44:05.772Z,91.0999984741211
2018-01-10T01:45:08.863Z,91.0999984741211
2018-01-10T01:46:06.286Z,91.0999984741211
2018-01-10T01:47:08.100Z,91.0999984741211
2018-01-10T01:48:05.431Z,91.0999984741211
2018-01-10T01:49:05.708Z,91.0999984741211
2018-01-10T01:50:08.950Z,91.0999984741211
2018-01-10T01:51:11.386Z,91.0999984741211
2018-01-10T01:52:10.808Z,91.19999694824219
2018-01-10T01:53:06.068Z,91.19999694824219
2018-01-10T01:54:10.715Z,91.19999694824219
2018-01-10T01:55:06.167Z,91.19999694824219
2018-01-10T01:56:05.951Z,91.0999984741211
2018-01-10T01:57:05.513Z,91.19999694824219
2018-01-10T01:58:06.283Z,91.19999694824219
2018-01-10T01:59:05.849Z,91.30000305175781
2018-01-10T02:00:11.430Z,91.4000015258789
2018-01-10T02:01:08.971Z,91.4000015258789
2018-01-10T02:02:06.300Z,91.4000015258789
2018-01-10T02:03:08.372Z,91.5999984741211
2018-01-10T02:04:05.720Z,91.5999984741211
2018-01-10T02:05:05.455Z,91.5999984741211
2018-01-10T02:06:08.937Z,91.5
2018-01-10T02:07:08.885Z,91.4000015258789
2018-01-10T02:08:08.805Z,91.30000305175781
2018-01-10T02:09:05.719Z,91.30000305175781
2018-01-10T02:10:06.331Z,91.0999984741211
2018-01-10T02:11:05.931Z,91
2018-01-10T02:12:11.032Z,91
2018-01-10T02:13:08.614Z,91
2018-01-10T02:14:08.536Z,91
2018-01-10T02:15:08.491Z,91
2018-01-10T02:16:08.119Z,91
2018-01-10T02:17:05.549Z,91
2018-01-10T02:18:08.710Z,91
2018-01-10T02:19:06.119Z,91
2018-01-10T02:20:06.006Z,90.9000015258789
2018-01-10T02:21:10.605Z,90.9000015258789
2018-01-10T02:22:06.995Z,90.9000015258789
2018-01-10T02:23:10.631Z,90.80000305175781
2018-01-10T02:24:08.044Z,90.80000305175781
2018-01-10T02:25:10.478Z,90.69999694824219
2018-01-10T02:26:06.190Z,90.69999694824219
2018-01-10T02:27:05.806Z,90.69999694824219
2018-01-10T02:28:10.698Z,90.80000305175781
2018-01-10T02:29:05.999Z,90.69999694824219
2018-01-10T02:30:08.141Z,90.9000015258789
2018-01-10T02:31:10.638Z,91
2018-01-10T02:32:06.079Z,91
2018-01-10T02:33:05.633Z,91
2018-01-10T02:34:07.929Z,91.0999984741211
2018-01-10T02:35:08.904Z,91.0999984741211
2018-01-10T02:36:11.354Z,91.0999984741211
2018-01-10T02:37:05.787Z,91.0999984741211
2018-01-10T02:38:08.778Z,91.0999984741211
2018-01-10T02:39:08.677Z,91.0999984741211
2018-01-10T02:40:06.010Z,91.0999984741211
2018-01-10T02:41:08.874Z,91.0999984741211
2018-01-10T02:42:08.284Z,91
2018-01-10T02:43:05.564Z,91
2018-01-10T02:44:12.146Z,91.19999694824219
2018-01-10T02:45:05.945Z,91.30000305175781
2018-01-10T02:46:05.577Z,91.0999984741211
2018-01-10T02:47:08.575Z,91
2018-01-10T02:48:05.992Z,91
2018-01-10T02:49:15.595Z,91
2018-01-10T02:50:05.811Z,91
2018-01-10T02:51:11.488Z,91
2018-01-10T02:52:13.498Z,91
2018-01-10T02:53:05.960Z,91
2018-01-10T02:54:05.785Z,91
2018-01-10T02:55:11.341Z,91
2018-01-10T02:56:05.827Z,91
2018-01-10T02:57:05.722Z,91
2018-01-10T02:58:06.226Z,90.9000015258789
2018-01-10T02:59:05.885Z,90.80000305175781
2018-01-10T03:00:06.428Z,90.80000305175781
2018-01-10T03:01:06.122Z,90.80000305175781
2018-01-10T03:02:08.134Z,90.80000305175781
2018-01-10T03:03:10.598Z,90.80000305175781
2018-01-10T03:04:06.157Z,90.80000305175781
2018-01-10T03:05:05.677Z,90.80000305175781
2018-01-10T03:06:10.854Z,90.80000305175781
2018-01-10T03:07:08.737Z,90.9000015258789
2018-01-10T03:08:11.115Z,90.9000015258789
2018-01-10T03:09:05.571Z,90.9000015258789
2018-01-10T03:10:06.491Z,90.9000015258789
2018-01-10T03:11:11.083Z,91
2018-01-10T03:12:10.557Z,91
2018-01-10T03:13:05.867Z,91.19999694824219
2018-01-10T03:14:06.424Z,91.0999984741211
2018-01-10T03:15:06.018Z,91.19999694824219
2018-01-10T03:16:08.095Z,91.0999984741211
2018-01-10T03:17:05.619Z,91.0999984741211
2018-01-10T03:18:13.702Z,91.0999984741211
2018-01-10T03:19:06.194Z,91
2018-01-10T03:20:05.631Z,91.0999984741211
2018-01-10T03:21:06.307Z,91.0999984741211
2018-01-10T03:22:10.609Z,91.0999984741211
2018-01-10T03:23:06.408Z,91
2018-01-10T03:24:05.969Z,90.9000015258789
2018-01-10T03:25:05.624Z,90.9000015258789
2018-01-10T03:26:06.223Z,90.80000305175781
2018-01-10T03:27:06.307Z,90.80000305175781
2018-01-10T03:28:08.449Z,90.80000305175781
2018-01-10T03:29:05.929Z,90.80000305175781
2018-01-10T03:30:05.560Z,90.80000305175781
2018-01-10T03:31:06.412Z,90.80000305175781
2018-01-10T03:32:05.963Z,90.80000305175781
2018-01-10T03:33:05.554Z,90.69999694824219
2018-01-10T03:34:06.224Z,90.69999694824219
2018-01-10T03:35:08.346Z,90.69999694824219
2018-01-10T03:36:11.833Z,90.69999694824219
2018-01-10T03:37:10.927Z,90.80000305175781
2018-01-10T03:38:06.154Z,90.80000305175781
2018-01-10T03:39:05.699Z,90.9000015258789
2018-01-10T03:40:10.595Z,90.9000015258789
2018-01-10T03:41:05.681Z,90.9000015258789
2018-01-10T03:42:05.837Z,91
2018-01-10T03:43:06.403Z,91.0999984741211
2018-01-10T03:44:05.912Z,91.19999694824219
2018-01-10T03:45:08.164Z,91.5
2018-01-10T03:46:08.077Z,91.5
2018-01-10T03:47:05.419Z,91.5
2018-01-10T03:48:11.157Z,91.5
2018-01-10T03:49:08.740Z,91.5
2018-01-10T03:50:05.729Z,91.5
2018-01-10T03:51:06.368Z,91.5
2018-01-10T03:52:05.968Z,91.4000015258789
2018-01-10T03:53:07.978Z,91.4000015258789
2018-01-10T03:54:06.353Z,91.4000015258789
2018-01-10T03:55:05.950Z,91.30000305175781
2018-01-10T03:56:05.474Z,91.30000305175781
2018-01-10T03:57:08.589Z,91.30000305175781
2018-01-10T03:58:08.189Z,91.30000305175781
2018-01-10T03:59:10.695Z,91.30000305175781
2018-01-10T04:00:06.060Z,91.30000305175781
2018-01-10T04:01:08.116Z,91.4000015258789
2018-01-10T04:02:05.681Z,91.4000015258789
2018-01-10T04:03:11.466Z,91.30000305175781
2018-01-10T04:04:08.688Z,91.30000305175781
2018-01-10T04:05:06.109Z,91.30000305175781
2018-01-10T04:06:08.099Z,91.30000305175781
2018-01-10T04:07:05.507Z,91.30000305175781
2018-01-10T04:08:08.566Z,91.30000305175781
2018-01-10T04:09:08.532Z,91.30000305175781
2018-01-10T04:10:10.882Z,91.30000305175781
2018-01-10T04:11:06.317Z,91.30000305175781
2018-01-10T04:12:06.267Z,91.30000305175781
2018-01-10T04:13:06.072Z,91.30000305175781
2018-01-10T04:14:08.057Z,91.30000305175781
2018-01-10T04:15:05.455Z,91.30000305175781
2018-01-10T04:16:06.281Z,91.19999694824219
2018-01-10T04:17:08.428Z,91.30000305175781
2018-01-10T04:18:06.475Z,91.30000305175781
2018-01-10T04:19:05.984Z,91.30000305175781
2018-01-10T04:20:05.965Z,91.4000015258789
2018-01-10T04:21:08.748Z,91.5
2018-01-10T04:22:11.187Z,91.5
2018-01-10T04:23:05.509Z,91.5
2018-01-10T04:24:08.600Z,91.5
2018-01-10T04:25:06.267Z,91.5
2018-01-10T04:26:08.420Z,91.5
2018-01-10T04:27:05.770Z,91.5
2018-01-10T04:28:08.329Z,91.5
2018-01-10T04:29:05.769Z,91.5
2018-01-10T04:30:06.728Z,91.5
2018-01-10T04:31:06.291Z,91.5
2018-01-10T04:32:08.416Z,91.5
2018-01-10T04:33:08.320Z,91.5
2018-01-10T04:34:05.702Z,91.5
2018-01-10T04:35:10.632Z,91.5
2018-01-10T04:36:06.026Z,91.5
2018-01-10T04:37:05.911Z,91.5
2018-01-10T04:38:06.602Z,91.5999984741211
2018-01-10T04:39:06.118Z,91.5999984741211
2018-01-10T04:40:06.133Z,91.5999984741211
2018-01-10T04:41:08.273Z,91.69999694824219
2018-01-10T04:42:05.637Z,91.80000305175781
2018-01-10T04:43:06.246Z,91.5999984741211
2018-01-10T04:44:08.217Z,91.80000305175781
2018-01-10T04:45:05.791Z,91.80000305175781
2018-01-10T04:46:08.879Z,91.80000305175781
2018-01-10T04:47:08.783Z,91.80000305175781
2018-01-10T04:48:06.185Z,79
2018-01-10T04:49:05.836Z,91.80000305175781
2018-01-10T04:50:08.880Z,91.80000305175781
2018-01-10T04:51:08.855Z,91.80000305175781
2018-01-10T04:52:06.533Z,91.80000305175781
2018-01-10T04:53:06.314Z,91.80000305175781
2018-01-10T04:54:10.872Z,91.9000015258789
2018-01-10T04:55:11.392Z,91.9000015258789
2018-01-10T04:56:06.169Z,92
2018-01-10T04:57:05.705Z,92
2018-01-10T04:58:09.019Z,92
2018-01-10T04:59:06.240Z,92
2018-01-10T05:00:08.375Z,92
2018-01-10T05:01:08.325Z,92
2018-01-10T05:02:05.728Z,92
2018-01-10T05:03:06.284Z,92.19999694824219
2018-01-10T05:04:08.916Z,92.4000015258789
2018-01-10T05:05:06.602Z,92.4000015258789
2018-01-10T05:06:06.145Z,92.4000015258789
2018-01-10T05:07:08.438Z,92.30000305175781
2018-01-10T05:08:10.814Z,92.5
2018-01-10T05:09:11.260Z,92.30000305175781
2018-01-10T05:10:08.024Z,92.30000305175781
2018-01-10T05:11:10.475Z,92.30000305175781
2018-01-10T05:12:08.353Z,92.30000305175781
2018-01-10T05:13:05.847Z,92.30000305175781
2018-01-10T05:14:06.494Z,92.30000305175781
2018-01-10T05:15:05.980Z,92.30000305175781
2018-01-10T05:16:08.020Z,92.30000305175781
2018-01-10T05:17:05.478Z,92.30000305175781
2018-01-10T05:18:08.581Z,92.30000305175781
2018-01-10T05:19:08.504Z,92.4000015258789
2018-01-10T05:20:05.704Z,92.4000015258789
2018-01-10T05:21:11.270Z,92.4000015258789
2018-01-10T05:22:08.465Z,92.4000015258789
2018-01-10T05:23:05.859Z,92.4000015258789
2018-01-10T05:24:08.724Z,92.30000305175781
2018-01-10T05:25:08.977Z,92.4000015258789
2018-01-10T05:26:11.081Z,92.30000305175781
2018-01-10T05:27:06.381Z,92.4000015258789
2018-01-10T05:28:11.039Z,92.30000305175781
2018-01-10T05:29:05.612Z,92.30000305175781
2018-01-10T05:30:06.364Z,92.30000305175781
2018-01-10T05:31:05.938Z,92.30000305175781
2018-01-10T05:32:08.985Z,92.30000305175781
2018-01-10T05:33:05.745Z,92.19999694824219
2018-01-10T05:34:05.788Z,92.30000305175781
2018-01-10T05:35:06.408Z,92.30000305175781
2018-01-10T05:36:06.004Z,92.30000305175781
2018-01-10T05:37:06.121Z,92.30000305175781
2018-01-10T05:38:08.146Z,92.19999694824219
2018-01-10T05:39:10.544Z,92.30000305175781
2018-01-10T05:40:05.946Z,92.30000305175781
2018-01-10T05:41:05.892Z,92.30000305175781
2018-01-10T05:42:08.879Z,92.30000305175781
2018-01-10T05:43:06.286Z,92.19999694824219
2018-01-10T05:44:13.445Z,92.19999694824219
2018-01-10T05:45:10.871Z,92.19999694824219
2018-01-10T05:46:08.220Z,92.30000305175781
2018-01-10T05:47:05.698Z,92.19999694824219
2018-01-10T05:48:06.255Z,92.30000305175781
2018-01-10T05:49:05.829Z,92.19999694824219
2018-01-10T05:50:06.539Z,92.19999694824219
2018-01-10T05:51:05.893Z,92.19999694824219
2018-01-10T05:52:06.738Z,92.19999694824219
2018-01-10T05:53:06.134Z,92.19999694824219
2018-01-10T05:54:08.853Z,92.19999694824219
2018-01-10T05:55:06.271Z,92.19999694824219
2018-01-10T05:56:05.875Z,92.19999694824219
2018-01-10T05:57:06.496Z,92.19999694824219
2018-01-10T05:58:05.943Z,92.19999694824219
2018-01-10T05:59:08.083Z,92.4000015258789
2018-01-10T06:00:10.504Z,92.5
2018-01-10T06:01:08.161Z,92.4000015258789
2018-01-10T06:02:05.829Z,92.4000015258789
2018-01-10T06:03:08.860Z,92.5
2018-01-10T06:04:11.292Z,92.4000015258789
2018-01-10T06:05:08.028Z,92.5999984741211
2018-01-10T06:06:06.512Z,92.5999984741211
2018-01-10T06:07:06.286Z,92.5999984741211
2018-01-10T06:08:05.724Z,92.5999984741211
2018-01-10T06:09:08.771Z,92.5
2018-01-10T06:10:08.777Z,92.4000015258789
2018-01-10T06:11:06.179Z,92.4000015258789
2018-01-10T06:12:08.520Z,92.30000305175781
2018-01-10T06:13:08.563Z,92.19999694824219
2018-01-10T06:14:05.512Z,92.19999694824219
2018-01-10T06:15:06.130Z,92.30000305175781
2018-01-10T06:16:05.712Z,92.30000305175781
2018-01-10T06:17:06.333Z,92.30000305175781
2018-01-10T06:18:06.016Z,92.4000015258789
2018-01-10T06:19:08.004Z,92.5
2018-01-10T06:20:08.941Z,92.5
2018-01-10T06:21:08.928Z,92.5
2018-01-10T06:22:06.348Z,92.5
2018-01-10T06:23:08.519Z,92.5
2018-01-10T06:24:06.303Z,92.4000015258789
2018-01-10T06:25:05.853Z,92.4000015258789
2018-01-10T06:26:08.952Z,92.5
2018-01-10T06:27:08.870Z,92.5
2018-01-10T06:28:06.284Z,92.5
2018-01-10T06:29:13.563Z,92.4000015258789
2018-01-10T06:30:08.538Z,92.4000015258789
2018-01-10T06:31:08.537Z,92.4000015258789
2018-01-10T06:32:05.792Z,92.30000305175781
2018-01-10T06:33:08.329Z,92.4000015258789
2018-01-10T06:34:05.734Z,92.4000015258789
2018-01-10T06:35:10.646Z,92.19999694824219
2018-01-10T06:36:08.502Z,92.19999694824219
2018-01-10T06:37:06.014Z,92.30000305175781
2018-01-10T06:38:05.991Z,92.30000305175781
2018-01-10T06:39:05.617Z,92.30000305175781
2018-01-10T06:40:05.422Z,92.30000305175781
2018-01-10T06:41:05.867Z,92.4000015258789
2018-01-10T06:42:05.534Z,92.30000305175781
2018-01-10T06:43:05.765Z,92.30000305175781
2018-01-10T06:44:08.010Z,92.5
2018-01-10T06:45:08.376Z,92.5
2018-01-10T06:46:08.308Z,92.5999984741211
2018-01-10T06:47:08.575Z,92.80000305175781
2018-01-10T06:48:06.037Z,92.69999694824219
2018-01-10T06:49:05.800Z,92.80000305175781
2018-01-10T06:50:06.329Z,92.80000305175781
2018-01-10T06:51:08.437Z,92.69999694824219
2018-01-10T06:52:06.131Z,92.69999694824219
2018-01-10T06:53:05.646Z,92.5999984741211
2018-01-10T06:54:06.457Z,92.69999694824219
2018-01-10T06:55:11.044Z,92.69999694824219
2018-01-10T06:56:10.523Z,92.80000305175781
2018-01-10T06:57:11.033Z,92.69999694824219
2018-01-10T06:58:06.177Z,92.69999694824219
2018-01-10T06:59:05.617Z,92.69999694824219
2018-01-10T07:00:08.630Z,92.80000305175781
2018-01-10T07:01:11.148Z,92.80000305175781
2018-01-10T07:02:08.739Z,92.9000015258789
2018-01-10T07:03:05.849Z,92.9000015258789
2018-01-10T07:04:08.900Z,92.9000015258789
2018-01-10T07:05:06.418Z,93
2018-01-10T07:06:08.365Z,92.80000305175781
2018-01-10T07:07:05.777Z,93
2018-01-10T07:08:06.105Z,92.80000305175781
2018-01-10T07:09:05.656Z,93.0999984741211
2018-01-10T07:10:08.298Z,93.4000015258789
2018-01-10T07:11:05.819Z,93.4000015258789
2018-01-10T07:12:11.381Z,93.5
2018-01-10T07:13:10.785Z,93.69999694824219
2018-01-10T07:14:06.374Z,93.80000305175781
2018-01-10T07:15:10.940Z,93.80000305175781
2018-01-10T07:16:05.900Z,93.69999694824219
2018-01-10T07:17:09.014Z,93.5999984741211
2018-01-10T07:18:13.980Z,93.30000305175781
2018-01-10T07:19:07.987Z,93.30000305175781
2018-01-10T07:20:08.998Z,93.19999694824219
2018-01-10T07:21:06.497Z,93.19999694824219
2018-01-10T07:22:06.079Z,93.19999694824219
2018-01-10T07:23:08.048Z,93.0999984741211
2018-01-10T07:24:06.547Z,93.0999984741211
2018-01-10T07:25:11.077Z,93
2018-01-10T07:26:10.600Z,93
2018-01-10T07:27:08.708Z,92.80000305175781
2018-01-10T07:28:06.849Z,92.80000305175781
2018-01-10T07:29:08.940Z,92.5
2018-01-10T07:30:06.764Z,92.5
2018-01-10T07:31:06.478Z,92.5
2018-01-10T07:32:08.564Z,92.5
2018-01-10T07:33:08.519Z,92.5
2018-01-10T07:34:05.948Z,92.69999694824219
2018-01-10T07:35:05.434Z,92.5
2018-01-10T07:36:10.906Z,92.5
2018-01-10T07:37:11.378Z,92.69999694824219
2018-01-10T07:38:05.539Z,92.69999694824219
2018-01-10T07:39:06.358Z,92.69999694824219
2018-01-10T07:40:05.910Z,92.5999984741211
2018-01-10T07:41:05.617Z,92.69999694824219
2018-01-10T07:42:08.465Z,92.69999694824219
2018-01-10T07:43:11.031Z,92.80000305175781
2018-01-10T07:44:05.962Z,92.80000305175781
2018-01-10T07:45:06.116Z,92.80000305175781
2018-01-10T07:46:08.212Z,92.80000305175781
2018-01-10T07:47:05.714Z,92.80000305175781
2018-01-10T07:48:11.302Z,92.80000305175781
2018-01-10T07:49:10.715Z,92.80000305175781
2018-01-10T07:50:05.530Z,92.80000305175781
2018-01-10T07:51:05.996Z,92.80000305175781
2018-01-10T07:52:05.553Z,92.69999694824219
2018-01-10T07:53:06.272Z,92.69999694824219
2018-01-10T07:54:06.312Z,92.69999694824219
2018-01-10T07:55:06.039Z,92.80000305175781
2018-01-10T07:56:05.639Z,92.80000305175781
2018-01-10T07:57:08.332Z,92.69999694824219
2018-01-10T07:58:05.694Z,92.80000305175781
2018-01-10T07:59:06.266Z,92.69999694824219
2018-01-10T08:00:08.243Z,92.80000305175781
2018-01-10T08:01:06.032Z,92.80000305175781
2018-01-10T08:02:05.790Z,92.80000305175781
2018-01-10T08:03:05.442Z,92.9000015258789
2018-01-10T08:04:06.060Z,92.9000015258789
2018-01-10T08:05:05.560Z,92.80000305175781
2018-01-10T08:06:11.184Z,92.80000305175781
2018-01-10T08:07:10.722Z,92.69999694824219
2018-01-10T08:08:10.585Z,92.69999694824219
2018-01-10T08:09:06.401Z,92.5999984741211
2018-01-10T08:10:06.029Z,92.69999694824219
2018-01-10T08:11:05.893Z,92.69999694824219
2018-01-10T08:12:06.386Z,92.69999694824219
2018-01-10T08:13:08.731Z,92.69999694824219
2018-01-10T08:14:08.674Z,92.69999694824219
2018-01-10T08:15:11.234Z,92.69999694824219
2018-01-10T08:16:05.898Z,92.69999694824219
2018-01-10T08:17:09.764Z,92.80000305175781
2018-01-10T08:18:11.337Z,92.69999694824219
2018-01-10T08:19:05.536Z,92.69999694824219
2018-01-10T08:20:05.834Z,92.69999694824219
2018-01-10T08:21:06.002Z,92.69999694824219
2018-01-10T08:22:05.665Z,92.69999694824219
2018-01-10T08:23:06.411Z,92.69999694824219
2018-01-10T08:24:06.034Z,92.80000305175781
2018-01-10T08:25:11.579Z,92.80000305175781
2018-01-10T08:26:08.954Z,92.80000305175781
2018-01-10T08:27:06.141Z,92.80000305175781
2018-01-10T08:28:10.738Z,93
2018-01-10T08:29:06.217Z,92.9000015258789
2018-01-10T08:30:05.463Z,92.9000015258789
2018-01-10T08:31:06.395Z,93
2018-01-10T08:32:06.514Z,93
2018-01-10T08:33:06.202Z,93.0999984741211
2018-01-10T08:34:08.171Z,93.0999984741211
2018-01-10T08:35:05.761Z,93
2018-01-10T08:36:08.871Z,93
2018-01-10T08:37:05.784Z,93
2018-01-10T08:38:05.721Z,93
2018-01-10T08:39:08.077Z,93
2018-01-10T08:40:05.893Z,93
2018-01-10T08:41:06.504Z,93
2018-01-10T08:42:05.766Z,93
2018-01-10T08:43:06.603Z,93
2018-01-10T08:44:06.213Z,93
2018-01-10T08:45:05.886Z,93
2018-01-10T08:46:08.010Z,93.19999694824219
2018-01-10T08:47:06.296Z,93.19999694824219
2018-01-10T08:48:08.355Z,93.19999694824219
2018-01-10T08:49:11.848Z,93.19999694824219
2018-01-10T08:50:05.500Z,93.19999694824219
2018-01-10T08:51:11.099Z,93.19999694824219
2018-01-10T08:52:10.567Z,93.19999694824219
2018-01-10T08:53:08.556Z,93.30000305175781
2018-01-10T08:54:08.498Z,93.19999694824219
2018-01-10T08:55:06.057Z,93.30000305175781
2018-01-10T08:56:05.711Z,93.19999694824219
2018-01-10T08:57:06.309Z,93.19999694824219
2018-01-10T08:58:06.065Z,93.19999694824219
2018-01-10T08:59:05.707Z,93.19999694824219
2018-01-10T09:00:05.726Z,93.19999694824219
2018-01-10T09:01:06.339Z,93.19999694824219
2018-01-10T09:02:08.370Z,93.19999694824219
2018-01-10T09:03:05.782Z,93.19999694824219
2018-01-10T09:04:06.012Z,93.19999694824219
2018-01-10T09:05:05.659Z,93.19999694824219
2018-01-10T09:06:08.362Z,93.30000305175781
2018-01-10T09:07:08.310Z,93.5
2018-01-10T09:08:11.264Z,93.5
2018-01-10T09:09:05.554Z,93.5
2018-01-10T09:10:11.508Z,93.5
2018-01-10T09:11:05.742Z,93.5
2018-01-10T09:12:08.195Z,93.4000015258789
2018-01-10T09:13:08.172Z,93.4000015258789
2018-01-10T09:14:05.674Z,93.4000015258789
2018-01-10T09:15:06.315Z,93.5
2018-01-10T09:16:08.477Z,93.5
2018-01-10T09:17:06.512Z,93.5
2018-01-10T09:18:11.017Z,93.5
2018-01-10T09:19:06.268Z,93.5
2018-01-10T09:20:08.301Z,93.4000015258789
2018-01-10T09:21:10.732Z,93.4000015258789
2018-01-10T09:22:06.347Z,93.4000015258789
2018-01-10T09:23:08.409Z,93.5
2018-01-10T09:24:08.459Z,93.4000015258789
2018-01-10T09:25:06.420Z,93.4000015258789
2018-01-10T09:26:10.912Z,93.4000015258789
2018-01-10T09:27:08.499Z,93.30000305175781
2018-01-10T09:28:10.932Z,93.30000305175781
2018-01-10T09:29:06.372Z,93.30000305175781
2018-01-10T09:30:05.941Z,93.30000305175781
2018-01-10T09:31:05.561Z,93.30000305175781
2018-01-10T09:32:08.723Z,93.30000305175781
2018-01-10T09:33:08.720Z,93.4000015258789
2018-01-10T09:34:06.171Z,93.30000305175781
2018-01-10T09:35:05.961Z,93.30000305175781
2018-01-10T09:36:05.627Z,93.30000305175781
2018-01-10T09:37:08.915Z,93.30000305175781
2018-01-10T09:38:06.626Z,93.30000305175781
2018-01-10T09:39:08.746Z,93.30000305175781
2018-01-10T09:40:06.607Z,93.30000305175781
2018-01-10T09:41:06.186Z,93.30000305175781
2018-01-10T09:42:08.241Z,93.30000305175781
2018-01-10T09:43:08.224Z,93.30000305175781
2018-01-10T09:44:05.966Z,93.30000305175781
2018-01-10T09:45:05.441Z,93.4000015258789
2018-01-10T09:46:06.497Z,93.30000305175781
2018-01-10T09:47:06.009Z,93.4000015258789
2018-01-10T09:48:10.607Z,93.4000015258789
2018-01-10T09:49:06.069Z,93.4000015258789
2018-01-10T09:50:05.804Z,93.4000015258789
2018-01-10T09:51:08.118Z,93.5
2018-01-10T09:52:05.851Z,93.4000015258789
2018-01-10T09:53:06.436Z,93.4000015258789
2018-01-10T09:54:06.114Z,93.5
2018-01-10T09:55:05.709Z,93.4000015258789
2018-01-10T09:56:07.946Z,93.5999984741211
2018-01-10T09:57:06.579Z,93.5999984741211
2018-01-10T09:58:08.666Z,93.5999984741211
2018-01-10T09:59:11.342Z,93.5999984741211
2018-01-10T10:00:10.950Z,93.5999984741211
2018-01-10T10:01:08.258Z,93.80000305175781
2018-01-10T10:02:06.171Z,93.69999694824219
2018-01-10T10:03:05.638Z,93.80000305175781
2018-01-10T10:04:11.291Z,93.69999694824219
2018-01-10T10:05:08.147Z,93.80000305175781